sensor_id;sensor_type;location;lat;lon;timestamp;P1;durP1;ratioP1;P2;durP2;ratioP2
21833;SDS011;11079;51.092;3.458;2023-07-13T00:00:12;12.88;;;3.22;;
21833;SDS011;11079;51.092;3.458;2023-07-13T00:02:41;12.30;;;4.07;;
21833;SDS011;11079;51.092;3.458;2023-07-13T00:05:13;13.85;;;3.00;;
21833;SDS011;11079;51.092;3.458;2023-07-13T00:07:59;15.63;;;3.78;;
21833;SDS011;11079;51.092;3.458;2023-07-13T00:10:25;15.75;;;3.97;;
21833;SDS011;11079;51.092;3.458;2023-07-13T00:12:54;14.63;;;3.33;;
21833;SDS011;11079;51.092;3.458;2023-07-13T00:15:25;11.02;;;3.58;;
21833;SDS011;11079;51.092;3.458;2023-07-13T00:17:54;14.85;;;3.70;;
21833;SDS011;11079;51.092;3.458;2023-07-13T00:20:22;13.45;;;3.25;;
21833;SDS011;11079;51.092;3.458;2023-07-13T00:22:50;14.57;;;3.92;;
21833;SDS011;11079;51.092;3.458;2023-07-13T00:25:19;15.07;;;3.95;;
21833;SDS011;11079;51.092;3.458;2023-07-13T00:27:59;11.70;;;4.03;;
21833;SDS011;11079;51.092;3.458;2023-07-13T00:30:24;12.82;;;4.18;;
21833;SDS011;11079;51.092;3.458;2023-07-13T00:33:13;13.45;;;4.13;;
21833;SDS011;11079;51.092;3.458;2023-07-13T00:35:53;18.95;;;4.82;;
21833;SDS011;11079;51.092;3.458;2023-07-13T00:39:16;12.40;;;4.25;;
21833;SDS011;11079;51.092;3.458;2023-07-13T00:41:48;20.27;;;4.95;;
21833;SDS011;11079;51.092;3.458;2023-07-13T00:44:23;16.42;;;4.57;;
21833;SDS011;11079;51.092;3.458;2023-07-13T00:47:19;17.92;;;5.45;;
21833;SDS011;11079;51.092;3.458;2023-07-13T00:49:47;25.30;;;5.82;;
21833;SDS011;11079;51.092;3.458;2023-07-13T00:52:37;14.48;;;4.70;;
21833;SDS011;11079;51.092;3.458;2023-07-13T00:55:05;25.27;;;6.32;;
21833;SDS011;11079;51.092;3.458;2023-07-13T00:57:31;19.30;;;5.15;;
21833;SDS011;11079;51.092;3.458;2023-07-13T01:00:16;19.55;;;5.55;;
21833;SDS011;11079;51.092;3.458;2023-07-13T01:02:44;22.83;;;5.25;;
21833;SDS011;11079;51.092;3.458;2023-07-13T01:05:15;18.40;;;5.72;;
21833;SDS011;11079;51.092;3.458;2023-07-13T01:07:52;15.70;;;5.50;;
21833;SDS011;11079;51.092;3.458;2023-07-13T01:10:38;19.33;;;5.60;;
21833;SDS011;11079;51.092;3.458;2023-07-13T01:13:05;17.00;;;5.47;;
21833;SDS011;11079;51.092;3.458;2023-07-13T01:18:13;20.70;;;7.20;;
21833;SDS011;11079;51.092;3.458;2023-07-13T01:23:18;13.25;;;5.25;;
21833;SDS011;11079;51.092;3.458;2023-07-13T01:25:44;23.90;;;5.85;;
21833;SDS011;11079;51.092;3.458;2023-07-13T01:28:10;20.10;;;5.68;;
21833;SDS011;11079;51.092;3.458;2023-07-13T01:30:37;15.73;;;5.10;;
21833;SDS011;11079;51.092;3.458;2023-07-13T01:33:08;24.02;;;6.95;;
21833;SDS011;11079;51.092;3.458;2023-07-13T01:36:13;18.80;;;5.82;;
21833;SDS011;11079;51.092;3.458;2023-07-13T01:38:53;15.38;;;5.68;;
21833;SDS011;11079;51.092;3.458;2023-07-13T01:41:50;16.90;;;5.45;;
21833;SDS011;11079;51.092;3.458;2023-07-13T01:44:21;19.38;;;5.15;;
21833;SDS011;11079;51.092;3.458;2023-07-13T01:46:46;15.70;;;5.78;;
21833;SDS011;11079;51.092;3.458;2023-07-13T01:49:12;22.52;;;6.03;;
21833;SDS011;11079;51.092;3.458;2023-07-13T01:51:57;18.42;;;6.10;;
21833;SDS011;11079;51.092;3.458;2023-07-13T01:54:22;17.77;;;5.03;;
21833;SDS011;11079;51.092;3.458;2023-07-13T01:57:04;17.98;;;5.63;;
21833;SDS011;11079;51.092;3.458;2023-07-13T01:59:41;16.55;;;5.35;;
21833;SDS011;11079;51.092;3.458;2023-07-13T02:02:06;18.33;;;6.35;;
21833;SDS011;11079;51.092;3.458;2023-07-13T02:05:10;18.73;;;6.03;;
21833;SDS011;11079;51.092;3.458;2023-07-13T02:08:21;18.77;;;5.47;;
21833;SDS011;11079;51.092;3.458;2023-07-13T02:11:07;20.10;;;6.00;;
21833;SDS011;11079;51.092;3.458;2023-07-13T02:13:34;15.80;;;5.55;;
21833;SDS011;11079;51.092;3.458;2023-07-13T02:16:13;17.85;;;5.13;;
21833;SDS011;11079;51.092;3.458;2023-07-13T02:18:50;15.50;;;5.80;;
21833;SDS011;11079;51.092;3.458;2023-07-13T02:21:17;23.83;;;6.20;;
21833;SDS011;11079;51.092;3.458;2023-07-13T02:24:04;14.15;;;5.15;;
21833;SDS011;11079;51.092;3.458;2023-07-13T02:27:00;23.27;;;7.97;;
21833;SDS011;11079;51.092;3.458;2023-07-13T02:29:33;23.73;;;6.63;;
21833;SDS011;11079;51.092;3.458;2023-07-13T02:32:32;17.45;;;5.85;;
21833;SDS011;11079;51.092;3.458;2023-07-13T02:35:16;18.17;;;6.60;;
21833;SDS011;11079;51.092;3.458;2023-07-13T02:38:02;20.23;;;5.50;;
21833;SDS011;11079;51.092;3.458;2023-07-13T02:40:37;24.98;;;9.35;;
21833;SDS011;11079;51.092;3.458;2023-07-13T02:43:06;21.33;;;6.53;;
21833;SDS011;11079;51.092;3.458;2023-07-13T02:45:38;19.17;;;6.20;;
21833;SDS011;11079;51.092;3.458;2023-07-13T02:48:38;17.67;;;6.53;;
21833;SDS011;11079;51.092;3.458;2023-07-13T02:51:06;15.48;;;6.15;;
21833;SDS011;11079;51.092;3.458;2023-07-13T02:53:35;19.33;;;5.93;;
21833;SDS011;11079;51.092;3.458;2023-07-13T02:56:31;21.75;;;6.10;;
21833;SDS011;11079;51.092;3.458;2023-07-13T02:59:16;12.57;;;5.85;;
21833;SDS011;11079;51.092;3.458;2023-07-13T03:01:41;25.58;;;7.25;;
21833;SDS011;11079;51.092;3.458;2023-07-13T03:04:08;21.17;;;7.05;;
21833;SDS011;11079;51.092;3.458;2023-07-13T03:06:53;23.17;;;7.15;;
21833;SDS011;11079;51.092;3.458;2023-07-13T03:09:31;21.70;;;7.20;;
21833;SDS011;11079;51.092;3.458;2023-07-13T03:12:23;19.50;;;7.93;;
21833;SDS011;11079;51.092;3.458;2023-07-13T03:14:49;21.00;;;6.95;;
21833;SDS011;11079;51.092;3.458;2023-07-13T03:17:15;24.10;;;7.00;;
21833;SDS011;11079;51.092;3.458;2023-07-13T03:19:42;19.77;;;6.90;;
21833;SDS011;11079;51.092;3.458;2023-07-13T03:22:09;17.05;;;7.50;;
21833;SDS011;11079;51.092;3.458;2023-07-13T03:24:35;23.92;;;6.75;;
21833;SDS011;11079;51.092;3.458;2023-07-13T03:27:31;20.08;;;6.53;;
21833;SDS011;11079;51.092;3.458;2023-07-13T03:29:57;23.33;;;7.35;;
21833;SDS011;11079;51.092;3.458;2023-07-13T03:32:25;21.40;;;7.13;;
21833;SDS011;11079;51.092;3.458;2023-07-13T03:34:52;21.15;;;7.10;;
21833;SDS011;11079;51.092;3.458;2023-07-13T03:37:20;21.50;;;7.38;;
21833;SDS011;11079;51.092;3.458;2023-07-13T03:39:58;23.10;;;7.43;;
21833;SDS011;11079;51.092;3.458;2023-07-13T03:42:44;18.92;;;7.20;;
21833;SDS011;11079;51.092;3.458;2023-07-13T03:45:09;18.00;;;6.68;;
21833;SDS011;11079;51.092;3.458;2023-07-13T03:47:35;17.98;;;6.70;;
21833;SDS011;11079;51.092;3.458;2023-07-13T03:50:01;20.50;;;7.35;;
21833;SDS011;11079;51.092;3.458;2023-07-13T03:52:27;16.95;;;7.22;;
21833;SDS011;11079;51.092;3.458;2023-07-13T03:54:54;18.17;;;7.45;;
21833;SDS011;11079;51.092;3.458;2023-07-13T03:57:20;22.05;;;7.50;;
21833;SDS011;11079;51.092;3.458;2023-07-13T03:59:48;20.88;;;7.72;;
21833;SDS011;11079;51.092;3.458;2023-07-13T04:02:54;24.23;;;7.05;;
21833;SDS011;11079;51.092;3.458;2023-07-13T04:05:28;16.52;;;6.53;;
21833;SDS011;11079;51.092;3.458;2023-07-13T04:08:00;21.35;;;6.05;;
21833;SDS011;11079;51.092;3.458;2023-07-13T04:10:48;22.70;;;6.38;;
21833;SDS011;11079;51.092;3.458;2023-07-13T04:13:15;15.13;;;5.72;;
21833;SDS011;11079;51.092;3.458;2023-07-13T04:15:49;18.38;;;6.93;;
21833;SDS011;11079;51.092;3.458;2023-07-13T04:18:15;19.25;;;6.13;;
21833;SDS011;11079;51.092;3.458;2023-07-13T04:20:40;20.88;;;5.80;;
21833;SDS011;11079;51.092;3.458;2023-07-13T04:23:08;20.73;;;6.18;;
21833;SDS011;11079;51.092;3.458;2023-07-13T04:25:44;17.00;;;6.80;;
21833;SDS011;11079;51.092;3.458;2023-07-13T04:28:11;23.75;;;6.38;;
21833;SDS011;11079;51.092;3.458;2023-07-13T04:30:56;16.88;;;6.03;;
21833;SDS011;11079;51.092;3.458;2023-07-13T04:33:40;18.70;;;6.20;;
21833;SDS011;11079;51.092;3.458;2023-07-13T04:36:23;17.67;;;6.82;;
21833;SDS011;11079;51.092;3.458;2023-07-13T04:38:52;15.32;;;7.18;;
21833;SDS011;11079;51.092;3.458;2023-07-13T04:41:20;18.50;;;7.22;;
21833;SDS011;11079;51.092;3.458;2023-07-13T04:43:46;18.30;;;6.35;;
21833;SDS011;11079;51.092;3.458;2023-07-13T04:46:13;15.82;;;5.78;;
21833;SDS011;11079;51.092;3.458;2023-07-13T04:48:42;17.20;;;7.10;;
21833;SDS011;11079;51.092;3.458;2023-07-13T04:51:24;18.15;;;6.57;;
21833;SDS011;11079;51.092;3.458;2023-07-13T04:53:57;19.45;;;5.03;;
21833;SDS011;11079;51.092;3.458;2023-07-13T04:56:54;17.55;;;5.65;;
21833;SDS011;11079;51.092;3.458;2023-07-13T04:59:37;18.83;;;6.20;;
21833;SDS011;11079;51.092;3.458;2023-07-13T05:02:33;21.13;;;6.30;;
21833;SDS011;11079;51.092;3.458;2023-07-13T05:05:58;18.08;;;6.50;;
21833;SDS011;11079;51.092;3.458;2023-07-13T05:08:53;16.60;;;5.85;;
21833;SDS011;11079;51.092;3.458;2023-07-13T05:12:11;18.70;;;6.03;;
21833;SDS011;11079;51.092;3.458;2023-07-13T05:14:37;18.58;;;6.80;;
21833;SDS011;11079;51.092;3.458;2023-07-13T05:17:02;18.58;;;6.25;;
21833;SDS011;11079;51.092;3.458;2023-07-13T05:19:30;14.68;;;6.18;;
21833;SDS011;11079;51.092;3.458;2023-07-13T05:21:56;17.77;;;5.70;;
21833;SDS011;11079;51.092;3.458;2023-07-13T05:24:22;13.93;;;5.70;;
21833;SDS011;11079;51.092;3.458;2023-07-13T05:26:48;16.45;;;7.85;;
21833;SDS011;11079;51.092;3.458;2023-07-13T05:29:13;13.15;;;5.00;;
21833;SDS011;11079;51.092;3.458;2023-07-13T05:31:39;14.02;;;5.22;;
21833;SDS011;11079;51.092;3.458;2023-07-13T05:34:04;16.70;;;5.93;;
21833;SDS011;11079;51.092;3.458;2023-07-13T05:36:30;16.05;;;5.50;;
21833;SDS011;11079;51.092;3.458;2023-07-13T05:38:56;11.38;;;5.05;;
21833;SDS011;11079;51.092;3.458;2023-07-13T05:41:21;15.52;;;5.45;;
21833;SDS011;11079;51.092;3.458;2023-07-13T05:43:47;17.70;;;5.57;;
21833;SDS011;11079;51.092;3.458;2023-07-13T05:46:13;16.83;;;4.97;;
21833;SDS011;11079;51.092;3.458;2023-07-13T05:48:39;11.98;;;7.57;;
21833;SDS011;11079;51.092;3.458;2023-07-13T05:51:05;15.80;;;5.68;;
21833;SDS011;11079;51.092;3.458;2023-07-13T05:53:30;16.50;;;5.70;;
21833;SDS011;11079;51.092;3.458;2023-07-13T05:55:56;21.33;;;5.20;;
21833;SDS011;11079;51.092;3.458;2023-07-13T05:58:21;15.68;;;4.80;;
21833;SDS011;11079;51.092;3.458;2023-07-13T06:00:47;12.15;;;4.75;;
21833;SDS011;11079;51.092;3.458;2023-07-13T06:03:14;12.40;;;5.55;;
21833;SDS011;11079;51.092;3.458;2023-07-13T06:05:40;16.33;;;5.53;;
21833;SDS011;11079;51.092;3.458;2023-07-13T06:08:06;11.90;;;4.43;;
21833;SDS011;11079;51.092;3.458;2023-07-13T06:10:32;16.23;;;5.00;;
21833;SDS011;11079;51.092;3.458;2023-07-13T06:12:59;21.38;;;6.00;;
21833;SDS011;11079;51.092;3.458;2023-07-13T06:15:24;15.85;;;5.18;;
21833;SDS011;11079;51.092;3.458;2023-07-13T06:17:50;18.27;;;5.13;;
21833;SDS011;11079;51.092;3.458;2023-07-13T06:20:16;16.75;;;5.40;;
21833;SDS011;11079;51.092;3.458;2023-07-13T06:22:41;12.73;;;4.88;;
21833;SDS011;11079;51.092;3.458;2023-07-13T06:25:07;17.48;;;4.78;;
21833;SDS011;11079;51.092;3.458;2023-07-13T06:27:33;14.80;;;4.95;;
21833;SDS011;11079;51.092;3.458;2023-07-13T06:29:59;15.45;;;4.18;;
21833;SDS011;11079;51.092;3.458;2023-07-13T06:32:24;12.40;;;4.13;;
21833;SDS011;11079;51.092;3.458;2023-07-13T06:34:50;11.35;;;3.92;;
21833;SDS011;11079;51.092;3.458;2023-07-13T06:37:17;16.58;;;4.72;;
21833;SDS011;11079;51.092;3.458;2023-07-13T06:39:42;14.73;;;3.75;;
21833;SDS011;11079;51.092;3.458;2023-07-13T06:42:08;18.58;;;5.13;;
21833;SDS011;11079;51.092;3.458;2023-07-13T06:44:34;15.20;;;4.40;;
21833;SDS011;11079;51.092;3.458;2023-07-13T06:47:00;12.57;;;3.88;;
21833;SDS011;11079;51.092;3.458;2023-07-13T06:49:25;16.98;;;4.63;;
21833;SDS011;11079;51.092;3.458;2023-07-13T06:51:51;14.02;;;3.88;;
21833;SDS011;11079;51.092;3.458;2023-07-13T06:54:16;15.43;;;4.75;;
21833;SDS011;11079;51.092;3.458;2023-07-13T06:56:42;14.18;;;3.85;;
21833;SDS011;11079;51.092;3.458;2023-07-13T06:59:08;13.88;;;4.60;;
21833;SDS011;11079;51.092;3.458;2023-07-13T07:01:33;20.10;;;4.32;;
21833;SDS011;11079;51.092;3.458;2023-07-13T07:03:59;14.27;;;4.68;;
21833;SDS011;11079;51.092;3.458;2023-07-13T07:06:24;14.20;;;4.20;;
21833;SDS011;11079;51.092;3.458;2023-07-13T07:08:50;17.65;;;4.63;;
21833;SDS011;11079;51.092;3.458;2023-07-13T07:11:19;16.08;;;5.07;;
21833;SDS011;11079;51.092;3.458;2023-07-13T07:13:47;13.50;;;4.57;;
21833;SDS011;11079;51.092;3.458;2023-07-13T07:16:13;13.55;;;4.13;;
21833;SDS011;11079;51.092;3.458;2023-07-13T07:18:39;13.05;;;4.30;;
21833;SDS011;11079;51.092;3.458;2023-07-13T07:21:05;10.73;;;3.60;;
21833;SDS011;11079;51.092;3.458;2023-07-13T07:23:31;10.27;;;3.55;;
21833;SDS011;11079;51.092;3.458;2023-07-13T07:25:56;14.02;;;4.15;;
21833;SDS011;11079;51.092;3.458;2023-07-13T07:28:22;11.05;;;3.95;;
21833;SDS011;11079;51.092;3.458;2023-07-13T07:30:48;12.18;;;3.65;;
21833;SDS011;11079;51.092;3.458;2023-07-13T07:33:17;12.68;;;4.28;;
21833;SDS011;11079;51.092;3.458;2023-07-13T07:35:43;10.80;;;3.53;;
21833;SDS011;11079;51.092;3.458;2023-07-13T07:38:08;8.15;;;3.08;;
21833;SDS011;11079;51.092;3.458;2023-07-13T07:40:37;12.38;;;3.22;;
21833;SDS011;11079;51.092;3.458;2023-07-13T07:43:05;7.50;;;2.88;;
21833;SDS011;11079;51.092;3.458;2023-07-13T07:45:31;11.95;;;2.83;;
21833;SDS011;11079;51.092;3.458;2023-07-13T07:47:57;9.73;;;3.05;;
21833;SDS011;11079;51.092;3.458;2023-07-13T07:50:24;7.78;;;2.85;;
21833;SDS011;11079;51.092;3.458;2023-07-13T07:52:50;9.27;;;2.85;;
21833;SDS011;11079;51.092;3.458;2023-07-13T07:55:16;13.23;;;3.40;;
21833;SDS011;11079;51.092;3.458;2023-07-13T07:57:42;10.55;;;3.00;;
21833;SDS011;11079;51.092;3.458;2023-07-13T08:00:08;7.80;;;2.20;;
21833;SDS011;11079;51.092;3.458;2023-07-13T08:02:34;6.55;;;2.78;;
21833;SDS011;11079;51.092;3.458;2023-07-13T08:04:59;9.18;;;2.75;;
21833;SDS011;11079;51.092;3.458;2023-07-13T08:07:25;8.82;;;3.08;;
21833;SDS011;11079;51.092;3.458;2023-07-13T08:09:53;9.88;;;2.67;;
21833;SDS011;11079;51.092;3.458;2023-07-13T08:12:19;11.85;;;3.03;;
21833;SDS011;11079;51.092;3.458;2023-07-13T08:14:45;10.55;;;2.60;;
21833;SDS011;11079;51.092;3.458;2023-07-13T08:17:18;6.72;;;2.90;;
21833;SDS011;11079;51.092;3.458;2023-07-13T08:19:44;9.98;;;2.38;;
21833;SDS011;11079;51.092;3.458;2023-07-13T08:22:10;9.75;;;2.40;;
21833;SDS011;11079;51.092;3.458;2023-07-13T08:24:36;8.52;;;2.50;;
21833;SDS011;11079;51.092;3.458;2023-07-13T08:27:01;9.52;;;2.67;;
21833;SDS011;11079;51.092;3.458;2023-07-13T08:29:27;8.70;;;2.30;;
21833;SDS011;11079;51.092;3.458;2023-07-13T08:31:53;10.15;;;2.92;;
21833;SDS011;11079;51.092;3.458;2023-07-13T08:34:19;9.98;;;2.97;;
21833;SDS011;11079;51.092;3.458;2023-07-13T08:36:45;10.48;;;2.88;;
21833;SDS011;11079;51.092;3.458;2023-07-13T08:39:11;6.63;;;2.03;;
21833;SDS011;11079;51.092;3.458;2023-07-13T08:41:38;9.52;;;2.25;;
21833;SDS011;11079;51.092;3.458;2023-07-13T08:44:03;14.82;;;2.22;;
21833;SDS011;11079;51.092;3.458;2023-07-13T08:46:36;9.07;;;2.72;;
21833;SDS011;11079;51.092;3.458;2023-07-13T08:49:18;7.40;;;2.42;;
21833;SDS011;11079;51.092;3.458;2023-07-13T08:52:00;5.40;;;2.10;;
21833;SDS011;11079;51.092;3.458;2023-07-13T08:54:32;10.77;;;2.58;;
21833;SDS011;11079;51.092;3.458;2023-07-13T08:57:05;6.32;;;2.25;;
21833;SDS011;11079;51.092;3.458;2023-07-13T08:59:39;6.25;;;2.45;;
21833;SDS011;11079;51.092;3.458;2023-07-13T09:12:54;5.13;;;2.10;;
21833;SDS011;11079;51.092;3.458;2023-07-13T09:15:42;9.32;;;2.22;;
21833;SDS011;11079;51.092;3.458;2023-07-13T09:18:11;9.57;;;2.33;;
21833;SDS011;11079;51.092;3.458;2023-07-13T09:23:22;9.38;;;2.08;;
21833;SDS011;11079;51.092;3.458;2023-07-13T09:25:51;6.57;;;2.28;;
21833;SDS011;11079;51.092;3.458;2023-07-13T09:28:29;7.32;;;1.95;;
21833;SDS011;11079;51.092;3.458;2023-07-13T09:33:57;6.32;;;2.00;;
21833;SDS011;11079;51.092;3.458;2023-07-13T09:36:24;7.35;;;1.80;;
21833;SDS011;11079;51.092;3.458;2023-07-13T09:44:14;6.53;;;2.20;;
21833;SDS011;11079;51.092;3.458;2023-07-13T09:46:47;7.70;;;1.80;;
21833;SDS011;11079;51.092;3.458;2023-07-13T09:49:18;7.03;;;2.40;;
21833;SDS011;11079;51.092;3.458;2023-07-13T09:51:43;5.47;;;1.92;;
21833;SDS011;11079;51.092;3.458;2023-07-13T09:54:23;6.28;;;2.28;;
21833;SDS011;11079;51.092;3.458;2023-07-13T09:56:54;10.50;;;2.15;;
21833;SDS011;11079;51.092;3.458;2023-07-13T09:59:27;6.95;;;2.15;;
21833;SDS011;11079;51.092;3.458;2023-07-13T10:01:57;12.18;;;2.40;;
21833;SDS011;11079;51.092;3.458;2023-07-13T10:04:29;7.10;;;1.92;;
21833;SDS011;11079;51.092;3.458;2023-07-13T10:07:06;4.97;;;2.15;;
21833;SDS011;11079;51.092;3.458;2023-07-13T10:09:33;6.95;;;2.42;;
21833;SDS011;11079;51.092;3.458;2023-07-13T10:11:58;8.82;;;2.58;;
21833;SDS011;11079;51.092;3.458;2023-07-13T10:14:25;8.52;;;2.78;;
21833;SDS011;11079;51.092;3.458;2023-07-13T10:16:52;7.80;;;3.00;;
21833;SDS011;11079;51.092;3.458;2023-07-13T10:19:26;11.18;;;2.95;;
21833;SDS011;11079;51.092;3.458;2023-07-13T10:22:02;8.13;;;2.88;;
21833;SDS011;11079;51.092;3.458;2023-07-13T10:24:39;7.80;;;3.33;;
21833;SDS011;11079;51.092;3.458;2023-07-13T10:27:48;9.05;;;3.50;;
21833;SDS011;11079;51.092;3.458;2023-07-13T10:33:05;7.40;;;2.72;;
21833;SDS011;11079;51.092;3.458;2023-07-13T10:35:36;9.20;;;3.55;;
21833;SDS011;11079;51.092;3.458;2023-07-13T10:38:10;8.27;;;3.00;;
21833;SDS011;11079;51.092;3.458;2023-07-13T10:40:39;9.50;;;3.65;;
21833;SDS011;11079;51.092;3.458;2023-07-13T10:46:10;8.25;;;3.38;;
21833;SDS011;11079;51.092;3.458;2023-07-13T10:48:39;7.72;;;3.17;;
21833;SDS011;11079;51.092;3.458;2023-07-13T10:51:07;4.95;;;2.50;;
21833;SDS011;11079;51.092;3.458;2023-07-13T10:53:35;7.57;;;2.58;;
21833;SDS011;11079;51.092;3.458;2023-07-13T10:56:03;5.72;;;2.17;;
21833;SDS011;11079;51.092;3.458;2023-07-13T10:58:47;4.47;;;2.28;;
21833;SDS011;11079;51.092;3.458;2023-07-13T11:02:26;3.58;;;1.77;;
21833;SDS011;11079;51.092;3.458;2023-07-13T11:04:45;4.72;;;2.10;;
21833;SDS011;11079;51.092;3.458;2023-07-13T11:07:23;2.30;;;1.42;;
21833;SDS011;11079;51.092;3.458;2023-07-13T11:09:57;4.57;;;1.52;;
21833;SDS011;11079;51.092;3.458;2023-07-13T11:20:09;5.85;;;1.63;;
21833;SDS011;11079;51.092;3.458;2023-07-13T11:25:30;4.53;;;2.22;;
21833;SDS011;11079;51.092;3.458;2023-07-13T11:38:31;3.20;;;1.60;;
21833;SDS011;11079;51.092;3.458;2023-07-13T11:40:58;4.55;;;1.85;;
21833;SDS011;11079;51.092;3.458;2023-07-13T11:43:28;3.40;;;1.90;;
21833;SDS011;11079;51.092;3.458;2023-07-13T11:45:54;2.78;;;1.50;;
21833;SDS011;11079;51.092;3.458;2023-07-13T11:48:21;4.57;;;1.85;;
21833;SDS011;11079;51.092;3.458;2023-07-13T11:50:52;4.60;;;1.65;;
21833;SDS011;11079;51.092;3.458;2023-07-13T11:53:26;5.60;;;1.50;;
21833;SDS011;11079;51.092;3.458;2023-07-13T11:55:54;3.97;;;1.75;;
21833;SDS011;11079;51.092;3.458;2023-07-13T11:58:22;4.30;;;1.48;;
21833;SDS011;11079;51.092;3.458;2023-07-13T12:00:50;3.42;;;1.30;;
21833;SDS011;11079;51.092;3.458;2023-07-13T12:03:20;5.68;;;1.70;;
21833;SDS011;11079;51.092;3.458;2023-07-13T12:06:05;5.95;;;1.92;;
21833;SDS011;11079;51.092;3.458;2023-07-13T12:08:43;8.32;;;2.22;;
21833;SDS011;11079;51.092;3.458;2023-07-13T12:11:15;8.63;;;2.25;;
21833;SDS011;11079;51.092;3.458;2023-07-13T12:13:43;6.97;;;2.08;;
21833;SDS011;11079;51.092;3.458;2023-07-13T12:16:32;7.97;;;1.90;;
21833;SDS011;11079;51.092;3.458;2023-07-13T12:19:00;7.97;;;2.40;;
21833;SDS011;11079;51.092;3.458;2023-07-13T12:21:31;5.15;;;1.70;;
21833;SDS011;11079;51.092;3.458;2023-07-13T12:23:58;6.07;;;2.40;;
21833;SDS011;11079;51.092;3.458;2023-07-13T12:26:28;5.15;;;1.63;;
21833;SDS011;11079;51.092;3.458;2023-07-13T12:28:55;6.43;;;2.30;;
21833;SDS011;11079;51.092;3.458;2023-07-13T12:31:34;5.60;;;1.98;;
21833;SDS011;11079;51.092;3.458;2023-07-13T12:34:11;6.15;;;1.80;;
21833;SDS011;11079;51.092;3.458;2023-07-13T12:36:46;4.85;;;1.88;;
21833;SDS011;11079;51.092;3.458;2023-07-13T12:39:18;2.65;;;1.50;;
21833;SDS011;11079;51.092;3.458;2023-07-13T12:41:46;5.97;;;1.90;;
21833;SDS011;11079;51.092;3.458;2023-07-13T12:44:34;5.15;;;1.55;;
21833;SDS011;11079;51.092;3.458;2023-07-13T12:47:03;5.68;;;1.65;;
21833;SDS011;11079;51.092;3.458;2023-07-13T12:49:39;5.43;;;1.70;;
21833;SDS011;11079;51.092;3.458;2023-07-13T12:52:12;4.40;;;1.45;;
21833;SDS011;11079;51.092;3.458;2023-07-13T12:54:41;4.90;;;1.58;;
21833;SDS011;11079;51.092;3.458;2023-07-13T12:57:17;5.45;;;2.10;;
21833;SDS011;11079;51.092;3.458;2023-07-13T12:59:42;4.57;;;1.60;;
21833;SDS011;11079;51.092;3.458;2023-07-13T13:04:55;3.85;;;1.55;;
21833;SDS011;11079;51.092;3.458;2023-07-13T13:07:21;5.95;;;1.70;;
21833;SDS011;11079;51.092;3.458;2023-07-13T13:09:48;4.40;;;1.85;;
21833;SDS011;11079;51.092;3.458;2023-07-13T13:12:14;4.40;;;1.58;;
21833;SDS011;11079;51.092;3.458;2023-07-13T13:14:41;4.10;;;1.50;;
21833;SDS011;11079;51.092;3.458;2023-07-13T13:20:37;3.80;;;1.50;;
21833;SDS011;11079;51.092;3.458;2023-07-13T13:23:18;7.05;;;1.67;;
21833;SDS011;11079;51.092;3.458;2023-07-13T13:25:49;4.65;;;1.35;;
21833;SDS011;11079;51.092;3.458;2023-07-13T13:28:22;4.43;;;1.33;;
21833;SDS011;11079;51.092;3.458;2023-07-13T13:30:52;4.43;;;1.40;;
21833;SDS011;11079;51.092;3.458;2023-07-13T13:33:18;3.10;;;1.20;;
21833;SDS011;11079;51.092;3.458;2023-07-13T13:35:49;2.00;;;1.00;;
21833;SDS011;11079;51.092;3.458;2023-07-13T13:38:21;4.55;;;1.40;;
21833;SDS011;11079;51.092;3.458;2023-07-13T13:40:50;4.32;;;1.38;;
21833;SDS011;11079;51.092;3.458;2023-07-13T13:43:17;3.72;;;1.40;;
21833;SDS011;11079;51.092;3.458;2023-07-13T13:45:51;3.58;;;1.50;;
21833;SDS011;11079;51.092;3.458;2023-07-13T13:48:21;3.83;;;1.20;;
21833;SDS011;11079;51.092;3.458;2023-07-13T13:50:55;4.93;;;1.08;;
21833;SDS011;11079;51.092;3.458;2023-07-13T13:53:26;3.22;;;1.25;;
21833;SDS011;11079;51.092;3.458;2023-07-13T13:55:55;2.35;;;1.20;;
21833;SDS011;11079;51.092;3.458;2023-07-13T13:58:25;3.13;;;1.38;;
21833;SDS011;11079;51.092;3.458;2023-07-13T14:00:56;4.88;;;1.58;;
21833;SDS011;11079;51.092;3.458;2023-07-13T14:03:23;3.08;;;1.10;;
21833;SDS011;11079;51.092;3.458;2023-07-13T14:05:50;4.40;;;1.30;;
21833;SDS011;11079;51.092;3.458;2023-07-13T14:08:20;3.58;;;1.20;;
21833;SDS011;11079;51.092;3.458;2023-07-13T14:10:46;4.80;;;1.48;;
21833;SDS011;11079;51.092;3.458;2023-07-13T14:13:17;3.55;;;1.67;;
21833;SDS011;11079;51.092;3.458;2023-07-13T14:15:46;8.13;;;1.58;;
21833;SDS011;11079;51.092;3.458;2023-07-13T14:18:13;2.60;;;1.13;;
21833;SDS011;11079;51.092;3.458;2023-07-13T14:20:43;4.97;;;1.38;;
21833;SDS011;11079;51.092;3.458;2023-07-13T14:23:10;3.85;;;1.30;;
21833;SDS011;11079;51.092;3.458;2023-07-13T14:25:40;2.83;;;1.27;;
21833;SDS011;11079;51.092;3.458;2023-07-13T14:28:40;4.93;;;1.13;;
21833;SDS011;11079;51.092;3.458;2023-07-13T14:30:58;3.50;;;1.15;;
21833;SDS011;11079;51.092;3.458;2023-07-13T14:33:24;2.95;;;1.08;;
21833;SDS011;11079;51.092;3.458;2023-07-13T14:35:50;4.78;;;1.23;;
21833;SDS011;11079;51.092;3.458;2023-07-13T14:38:17;2.63;;;1.20;;
21833;SDS011;11079;51.092;3.458;2023-07-13T14:40:46;2.80;;;1.10;;
21833;SDS011;11079;51.092;3.458;2023-07-13T14:43:13;2.38;;;1.42;;
21833;SDS011;11079;51.092;3.458;2023-07-13T14:45:41;2.13;;;1.15;;
21833;SDS011;11079;51.092;3.458;2023-07-13T14:48:20;2.95;;;1.45;;
21833;SDS011;11079;51.092;3.458;2023-07-13T14:50:58;4.45;;;1.50;;
21833;SDS011;11079;51.092;3.458;2023-07-13T14:53:27;4.25;;;1.23;;
21833;SDS011;11079;51.092;3.458;2023-07-13T14:55:53;2.40;;;1.20;;
21833;SDS011;11079;51.092;3.458;2023-07-13T14:58:18;1.65;;;1.15;;
21833;SDS011;11079;51.092;3.458;2023-07-13T15:00:44;3.45;;;1.00;;
21833;SDS011;11079;51.092;3.458;2023-07-13T15:03:19;1.98;;;0.88;;
21833;SDS011;11079;51.092;3.458;2023-07-13T15:05:48;4.28;;;1.02;;
21833;SDS011;11079;51.092;3.458;2023-07-13T15:08:14;3.30;;;1.10;;
21833;SDS011;11079;51.092;3.458;2023-07-13T15:10:40;3.13;;;1.15;;
21833;SDS011;11079;51.092;3.458;2023-07-13T15:13:14;2.13;;;1.20;;
21833;SDS011;11079;51.092;3.458;2023-07-13T15:15:48;2.80;;;1.00;;
21833;SDS011;11079;51.092;3.458;2023-07-13T15:18:18;2.50;;;1.17;;
21833;SDS011;11079;51.092;3.458;2023-07-13T15:20:47;2.88;;;1.13;;
21833;SDS011;11079;51.092;3.458;2023-07-13T15:23:15;2.22;;;1.00;;
21833;SDS011;11079;51.092;3.458;2023-07-13T15:25:42;3.40;;;1.33;;
21833;SDS011;11079;51.092;3.458;2023-07-13T15:28:09;3.42;;;1.60;;
21833;SDS011;11079;51.092;3.458;2023-07-13T15:30:46;3.55;;;1.20;;
21833;SDS011;11079;51.092;3.458;2023-07-13T15:33:15;6.05;;;1.00;;
21833;SDS011;11079;51.092;3.458;2023-07-13T15:35:47;2.92;;;1.15;;
21833;SDS011;11079;51.092;3.458;2023-07-13T15:38:17;2.80;;;1.20;;
21833;SDS011;11079;51.092;3.458;2023-07-13T15:44:55;3.08;;;1.40;;
21833;SDS011;11079;51.092;3.458;2023-07-13T15:47:52;2.47;;;1.25;;
21833;SDS011;11079;51.092;3.458;2023-07-13T15:50:37;5.57;;;1.58;;
21833;SDS011;11079;51.092;3.458;2023-07-13T15:53:41;2.55;;;1.10;;
21833;SDS011;11079;51.092;3.458;2023-07-13T15:59:48;3.88;;;1.10;;
21833;SDS011;11079;51.092;3.458;2023-07-13T16:02:18;5.07;;;1.23;;
21833;SDS011;11079;51.092;3.458;2023-07-13T16:04:46;2.75;;;1.23;;
21833;SDS011;11079;51.092;3.458;2023-07-13T16:07:13;2.97;;;1.00;;
21833;SDS011;11079;51.092;3.458;2023-07-13T16:09:42;2.88;;;1.23;;
21833;SDS011;11079;51.092;3.458;2023-07-13T16:12:12;2.80;;;1.25;;
21833;SDS011;11079;51.092;3.458;2023-07-13T16:14:41;2.63;;;1.27;;
21833;SDS011;11079;51.092;3.458;2023-07-13T16:17:15;2.55;;;1.30;;